createdAt,value
2017-06-29T00:00:41.027Z,18.30
2017-06-29T00:03:09.802Z,16.47
2017-06-29T00:05:38.167Z,18.47
2017-06-29T00:08:06.501Z,15.13
2017-06-29T00:10:35.189Z,18.73
2017-06-29T00:13:03.582Z,17.60
2017-06-29T00:15:31.907Z,16.93
2017-06-29T00:18:00.614Z,15.13
2017-06-29T00:20:28.939Z,24.60
2017-06-29T00:22:57.280Z,19.00
2017-06-29T00:25:25.947Z,16.83
2017-06-29T00:27:54.551Z,17.60
2017-06-29T00:30:22.878Z,15.60
2017-06-29T00:32:51.638Z,28.00
2017-06-29T00:35:19.983Z,15.10
2017-06-29T00:37:48.305Z,19.77
2017-06-29T00:40:16.966Z,16.70
2017-06-29T00:42:45.306Z,15.23
2017-06-29T00:45:13.641Z,17.23
2017-06-29T00:47:42.468Z,15.87
2017-06-29T00:50:10.856Z,15.50
2017-06-29T00:52:39.256Z,21.57
2017-06-29T00:55:08.169Z,16.90
2017-06-29T00:57:36.550Z,26.30
2017-06-29T01:00:04.908Z,15.33
2017-06-29T01:02:33.528Z,18.10
2017-06-29T01:05:01.857Z,26.73
2017-06-29T01:07:30.211Z,20.77
2017-06-29T01:09:59.669Z,45.07
2017-06-29T01:12:28.003Z,19.13
2017-06-29T01:14:57.127Z,20.03
2017-06-29T01:17:26.349Z,20.47
2017-06-29T01:19:54.680Z,18.60
2017-06-29T01:22:23.005Z,23.70
2017-06-29T01:24:51.645Z,20.93
2017-06-29T01:27:20.754Z,20.23
2017-06-29T01:29:49.846Z,20.27
2017-06-29T01:32:18.619Z,24.57
2017-06-29T01:34:46.984Z,18.90
2017-06-29T01:37:15.321Z,21.70
2017-06-29T01:39:44.281Z,18.90
2017-06-29T01:42:12.622Z,18.27
2017-06-29T01:44:40.960Z,27.13
2017-06-29T01:47:09.595Z,19.00
2017-06-29T01:49:37.933Z,34.63
2017-06-29T01:52:06.271Z,18.10
2017-06-29T01:54:34.926Z,21.33
2017-06-29T01:57:03.276Z,24.27
2017-06-29T01:59:31.612Z,18.07
2017-06-29T02:02:01.629Z,27.07
2017-06-29T02:04:29.967Z,23.53
2017-06-29T02:06:58.281Z,28.60
2017-06-29T02:09:27.905Z,21.13
2017-06-29T02:11:56.253Z,19.70
2017-06-29T02:14:24.615Z,21.97
2017-06-29T02:16:53.287Z,17.70
2017-06-29T02:19:21.624Z,24.53
2017-06-29T02:21:49.958Z,25.57
2017-06-29T02:24:18.850Z,28.07
2017-06-29T02:26:47.175Z,28.60
2017-06-29T02:29:16.269Z,30.33
2017-06-29T02:31:46.305Z,30.67
2017-06-29T02:34:14.645Z,28.10
2017-06-29T02:36:42.962Z,33.17
2017-06-29T02:39:11.613Z,35.03
2017-06-29T02:41:39.937Z,38.57
2017-06-29T02:44:08.274Z,23.90
2017-06-29T02:46:37.320Z,22.90
2017-06-29T02:49:05.657Z,22.10
2017-06-29T02:51:33.979Z,28.23
2017-06-29T02:54:02.621Z,39.43
2017-06-29T02:56:30.957Z,29.77
2017-06-29T02:58:59.285Z,25.00
2017-06-29T03:01:28.061Z,36.47
2017-06-29T03:03:56.400Z,30.33
2017-06-29T03:06:24.743Z,32.07
2017-06-29T03:08:53.681Z,24.80
2017-06-29T03:11:22.026Z,30.20
2017-06-29T03:13:50.362Z,28.90
2017-06-29T03:16:19.774Z,42.23
2017-06-29T03:18:48.113Z,36.03
2017-06-29T03:21:16.453Z,41.90
2017-06-29T03:23:45.130Z,25.10
2017-06-29T03:26:13.453Z,28.30
2017-06-29T03:28:41.796Z,32.37
2017-06-29T03:31:10.888Z,32.70
2017-06-29T03:33:39.240Z,35.03
2017-06-29T03:36:08.336Z,26.40
2017-06-29T03:38:36.995Z,28.67
2017-06-29T03:41:05.331Z,29.90
2017-06-29T03:43:33.689Z,29.97
2017-06-29T03:46:02.353Z,29.70
2017-06-29T03:48:30.702Z,40.47
2017-06-29T03:50:59.048Z,37.73
2017-06-29T03:53:28.042Z,37.90
2017-06-29T03:55:56.359Z,41.60
2017-06-29T03:58:24.699Z,34.67
2017-06-29T04:00:53.349Z,33.30
2017-06-29T04:03:21.700Z,39.07
2017-06-29T04:05:50.027Z,28.83
2017-06-29T04:08:18.818Z,28.87
2017-06-29T04:10:47.139Z,26.83
2017-06-29T04:13:15.481Z,30.87
2017-06-29T04:15:44.357Z,22.57
2017-06-29T04:18:12.706Z,27.03
2017-06-29T04:20:41.041Z,23.03
2017-06-29T04:23:09.830Z,30.83
2017-06-29T04:25:38.159Z,21.53
2017-06-29T04:28:06.504Z,27.53
2017-06-29T04:30:35.213Z,32.33
2017-06-29T04:33:03.614Z,24.23
2017-06-29T04:35:31.960Z,23.90
2017-06-29T04:38:01.085Z,29.10
2017-06-29T04:40:29.476Z,34.27
2017-06-29T04:42:58.569Z,28.77
2017-06-29T04:45:27.298Z,30.27
2017-06-29T04:47:55.711Z,27.97
2017-06-29T04:50:24.125Z,28.73
2017-06-29T04:52:52.865Z,27.30
2017-06-29T04:55:21.286Z,39.00
2017-06-29T04:57:49.662Z,29.83
2017-06-29T05:00:18.625Z,27.80
2017-06-29T05:02:47.019Z,31.20
2017-06-29T05:05:15.457Z,33.87
2017-06-29T05:07:44.366Z,32.47
2017-06-29T05:10:12.715Z,32.97
2017-06-29T05:12:41.059Z,32.80
2017-06-29T05:15:09.890Z,28.77
2017-06-29T05:17:38.265Z,26.30
2017-06-29T05:20:06.633Z,29.73
2017-06-29T05:22:36.249Z,29.20
2017-06-29T05:25:04.698Z,27.93
2017-06-29T05:27:33.177Z,33.03
2017-06-29T05:30:02.173Z,37.37
2017-06-29T05:32:30.766Z,36.13
2017-06-29T05:34:59.226Z,30.53
2017-06-29T05:37:28.075Z,38.80
2017-06-29T05:39:56.469Z,47.40
2017-06-29T05:42:24.804Z,42.33
2017-06-29T05:44:53.838Z,51.20
2017-06-29T05:47:22.172Z,44.20
2017-06-29T05:49:51.279Z,48.87
2017-06-29T05:52:20.889Z,52.53
2017-06-29T05:54:49.228Z,46.63
2017-06-29T05:57:17.583Z,53.03
2017-06-29T05:59:46.347Z,56.50
2017-06-29T06:02:14.687Z,74.27
2017-06-29T06:04:43.035Z,59.43
2017-06-29T06:07:11.972Z,57.97
2017-06-29T06:09:40.315Z,55.13
2017-06-29T06:12:08.661Z,50.63
2017-06-29T06:14:37.420Z,47.63
2017-06-29T06:17:05.769Z,47.67
2017-06-29T06:19:34.164Z,60.93
2017-06-29T06:22:03.105Z,55.83
2017-06-29T06:24:31.446Z,58.30
2017-06-29T06:26:59.803Z,65.77
2017-06-29T06:29:28.650Z,63.60
2017-06-29T06:31:56.997Z,57.90
2017-06-29T06:34:25.379Z,57.47
2017-06-29T06:36:54.767Z,63.37
2017-06-29T06:39:23.088Z,61.57
2017-06-29T06:41:51.420Z,58.63
2017-06-29T06:44:20.042Z,61.13
2017-06-29T06:46:48.390Z,62.47
2017-06-29T06:49:16.744Z,63.07
2017-06-29T06:51:45.971Z,56.03
2017-06-29T06:54:14.296Z,63.37
2017-06-29T06:56:42.634Z,68.60
2017-06-29T06:59:11.270Z,68.27
2017-06-29T07:01:39.618Z,61.77
2017-06-29T07:04:07.996Z,73.87
2017-06-29T07:06:36.784Z,62.70
2017-06-29T07:09:05.142Z,67.17
2017-06-29T07:11:34.261Z,63.30
2017-06-29T07:14:03.254Z,72.13
2017-06-29T07:16:31.642Z,79.63
2017-06-29T07:19:00.022Z,85.27
2017-06-29T07:21:28.675Z,89.73
2017-06-29T07:23:57.054Z,88.63
2017-06-29T07:26:26.194Z,93.20
2017-06-29T07:28:54.810Z,88.80
2017-06-29T07:31:23.158Z,87.60
2017-06-29T07:33:51.490Z,78.03
2017-06-29T07:36:20.380Z,82.40
2017-06-29T07:38:48.724Z,77.77
2017-06-29T07:41:17.053Z,90.60
2017-06-29T07:43:46.497Z,85.27
2017-06-29T07:46:14.915Z,82.87
2017-06-29T07:48:43.307Z,80.40
2017-06-29T07:51:12.936Z,82.53
2017-06-29T07:53:41.283Z,89.30
2017-06-29T07:56:09.635Z,91.77
2017-06-29T07:58:38.490Z,94.53
2017-06-29T08:01:06.830Z,86.80
2017-06-29T08:03:35.174Z,80.90
2017-06-29T08:06:04.011Z,83.50
2017-06-29T08:08:32.350Z,86.60
2017-06-29T08:11:00.677Z,82.83
2017-06-29T08:13:29.345Z,83.57
2017-06-29T08:15:57.698Z,87.87
2017-06-29T08:18:26.048Z,92.57
2017-06-29T08:20:55.316Z,100.20
2017-06-29T08:23:23.691Z,92.50
2017-06-29T08:25:52.036Z,88.27
2017-06-29T08:28:20.683Z,85.03
2017-06-29T08:30:49.057Z,70.27
2017-06-29T08:33:17.389Z,66.57
2017-06-29T08:35:46.236Z,63.13
2017-06-29T08:38:14.576Z,59.90
2017-06-29T08:40:42.916Z,64.43
2017-06-29T08:43:11.848Z,62.93
2017-06-29T08:45:40.257Z,66.07
2017-06-29T08:48:08.605Z,59.83
2017-06-29T08:50:37.509Z,58.33
2017-06-29T08:53:05.861Z,57.23
2017-06-29T08:55:34.223Z,52.93
2017-06-29T08:58:02.837Z,47.63
2017-06-29T09:00:31.183Z,46.33
2017-06-29T09:02:59.547Z,53.20
2017-06-29T09:05:28.262Z,47.73
2017-06-29T09:07:56.642Z,49.70
2017-06-29T09:10:25.025Z,52.70
2017-06-29T09:12:53.870Z,46.83
2017-06-29T09:15:22.248Z,49.60
2017-06-29T09:17:50.598Z,43.00
2017-06-29T09:20:19.231Z,39.83
2017-06-29T09:22:47.565Z,44.00
2017-06-29T09:25:15.938Z,41.80
2017-06-29T09:27:45.208Z,39.37
2017-06-29T09:30:13.577Z,39.23
2017-06-29T09:32:42.234Z,39.60
2017-06-29T09:35:10.980Z,40.67
2017-06-29T09:37:39.367Z,36.40
2017-06-29T09:40:07.725Z,37.20
2017-06-29T09:42:36.683Z,40.70
2017-06-29T09:45:05.033Z,33.40
2017-06-29T09:47:34.198Z,33.17
2017-06-29T09:50:03.006Z,35.27
2017-06-29T09:52:31.393Z,34.83
2017-06-29T09:54:59.746Z,36.47
2017-06-29T09:57:28.699Z,27.73
2017-06-29T09:59:57.103Z,33.40
2017-06-29T10:02:25.466Z,30.17
2017-06-29T10:04:54.132Z,24.40
2017-06-29T10:07:22.490Z,28.03
2017-06-29T10:09:50.837Z,21.40
2017-06-29T10:12:19.893Z,22.50
2017-06-29T10:14:48.272Z,25.67
2017-06-29T10:17:16.633Z,23.50
2017-06-29T10:19:45.337Z,22.20
2017-06-29T10:22:13.686Z,27.00
2017-06-29T10:24:42.137Z,20.43
2017-06-29T10:27:10.846Z,20.80
2017-06-29T10:29:39.296Z,21.60
2017-06-29T10:32:07.690Z,21.33
2017-06-29T10:34:37.049Z,27.40
2017-06-29T10:37:05.418Z,16.83
2017-06-29T10:39:33.849Z,18.10
2017-06-29T10:42:02.718Z,17.27
2017-06-29T10:44:31.066Z,15.20
2017-06-29T10:46:59.416Z,11.80
2017-06-29T10:49:28.400Z,13.43
2017-06-29T10:51:56.744Z,12.90
2017-06-29T10:54:25.101Z,13.40
2017-06-29T10:56:54.231Z,19.40
2017-06-29T10:59:22.589Z,14.87
2017-06-29T11:01:51.009Z,12.73
2017-06-29T11:04:19.686Z,15.70
2017-06-29T11:06:48.027Z,15.47
2017-06-29T11:09:16.387Z,12.43
2017-06-29T11:11:45.287Z,12.97
2017-06-29T11:14:13.637Z,12.60
2017-06-29T11:16:41.955Z,10.43
2017-06-29T11:19:11.349Z,12.43
2017-06-29T11:21:39.729Z,11.43
2017-06-29T11:24:08.086Z,10.17
2017-06-29T11:26:36.736Z,10.20
2017-06-29T11:29:05.066Z,10.47
2017-06-29T11:31:33.523Z,9.80
2017-06-29T11:34:02.547Z,21.10
2017-06-29T11:36:30.895Z,12.93
2017-06-29T11:38:59.239Z,18.30
2017-06-29T11:41:27.915Z,9.50
2017-06-29T11:43:56.276Z,9.07
2017-06-29T11:46:24.617Z,9.30
2017-06-29T11:48:53.407Z,9.33
2017-06-29T11:51:22.530Z,9.63
2017-06-29T11:53:50.887Z,12.00
2017-06-29T11:56:19.554Z,8.53
2017-06-29T11:58:47.893Z,12.10
2017-06-29T12:01:16.211Z,9.80
2017-06-29T12:03:45.043Z,12.97
2017-06-29T12:06:13.359Z,6.77
2017-06-29T12:08:41.702Z,7.30
2017-06-29T12:11:10.316Z,7.83
2017-06-29T12:13:38.680Z,7.00
2017-06-29T12:16:07.032Z,9.40
2017-06-29T12:18:35.730Z,8.23
2017-06-29T12:21:04.079Z,9.57
2017-06-29T12:23:32.421Z,7.20
2017-06-29T12:26:01.381Z,7.67
2017-06-29T12:28:29.722Z,6.90
2017-06-29T12:30:58.074Z,7.63
2017-06-29T12:33:26.836Z,11.53
2017-06-29T12:35:55.166Z,8.50
2017-06-29T12:38:23.530Z,7.87
2017-06-29T12:40:52.209Z,11.27
2017-06-29T12:43:20.552Z,8.50
2017-06-29T12:45:48.894Z,8.20
2017-06-29T12:48:17.921Z,8.03
2017-06-29T12:50:46.263Z,7.43
2017-06-29T12:53:14.598Z,7.07
2017-06-29T12:55:43.219Z,6.87
2017-06-29T12:58:11.595Z,12.00
2017-06-29T13:00:39.942Z,6.47
2017-06-29T13:03:08.814Z,12.80
2017-06-29T13:05:37.150Z,8.70
2017-06-29T13:08:05.505Z,6.87
2017-06-29T13:10:34.346Z,5.77
2017-06-29T13:13:03.451Z,4.70
2017-06-29T13:15:31.831Z,5.20
2017-06-29T13:18:00.478Z,4.67
2017-06-29T13:20:28.826Z,4.00
2017-06-29T13:25:31.943Z,4.97
2017-06-29T13:28:00.274Z,8.73
2017-06-29T13:30:28.634Z,5.37
2017-06-29T13:32:57.418Z,6.10
2017-06-29T13:35:25.793Z,12.37
2017-06-29T13:37:54.132Z,9.00
2017-06-29T13:40:22.994Z,8.87
2017-06-29T13:42:51.336Z,6.23
2017-06-29T13:45:19.648Z,7.23
2017-06-29T13:47:48.457Z,6.63
2017-06-29T13:50:16.790Z,5.97
2017-06-29T13:52:45.157Z,12.63
2017-06-29T13:55:14.301Z,7.30
2017-06-29T13:57:42.642Z,12.03
2017-06-29T14:00:10.995Z,7.70
2017-06-29T14:02:39.737Z,11.13
2017-06-29T14:05:08.105Z,8.10
2017-06-29T14:07:36.437Z,12.60
2017-06-29T14:10:05.223Z,9.10
2017-06-29T14:12:33.577Z,8.20
2017-06-29T14:15:01.901Z,9.17
2017-06-29T14:17:30.975Z,10.13
2017-06-29T14:19:59.332Z,16.53
2017-06-29T14:22:27.694Z,9.63
2017-06-29T14:24:56.352Z,11.70
2017-06-29T14:27:24.714Z,9.67
2017-06-29T14:29:53.043Z,13.23
2017-06-29T14:32:21.652Z,7.00
2017-06-29T14:34:49.993Z,8.53
2017-06-29T14:37:18.339Z,8.87
2017-06-29T14:39:47.167Z,11.17
2017-06-29T14:42:15.523Z,11.17
2017-06-29T14:44:43.889Z,7.23
2017-06-29T14:47:12.639Z,8.90
2017-06-29T14:49:40.988Z,7.20
2017-06-29T14:52:09.336Z,7.90
2017-06-29T14:54:37.975Z,7.43
2017-06-29T14:57:06.329Z,7.60
2017-06-29T14:59:34.660Z,7.37
2017-06-29T15:02:03.442Z,12.77
2017-06-29T15:04:31.794Z,7.77
2017-06-29T15:07:00.153Z,11.93
2017-06-29T15:09:28.824Z,7.93
2017-06-29T15:11:57.182Z,7.10
2017-06-29T15:14:25.520Z,7.53
2017-06-29T15:16:54.186Z,7.37
2017-06-29T15:19:22.539Z,8.70
2017-06-29T15:21:50.880Z,8.00
2017-06-29T15:24:20.084Z,13.87
2017-06-29T15:26:48.433Z,13.87
2017-06-29T15:29:16.778Z,8.00
2017-06-29T15:31:45.422Z,10.97
2017-06-29T15:34:13.797Z,14.77
2017-06-29T15:36:42.183Z,15.03
2017-06-29T15:39:11.163Z,8.13
2017-06-29T15:41:39.491Z,7.30
2017-06-29T15:44:07.855Z,10.23
2017-06-29T15:46:37.198Z,16.07
2017-06-29T15:49:05.579Z,8.60
2017-06-29T15:51:34.707Z,10.33
2017-06-29T15:54:03.369Z,9.17
2017-06-29T15:56:31.734Z,6.33
2017-06-29T15:59:00.058Z,8.33
2017-06-29T16:01:28.944Z,13.83
2017-06-29T16:03:57.298Z,15.80
2017-06-29T16:06:25.649Z,10.57
2017-06-29T16:08:54.521Z,8.10
2017-06-29T16:11:22.894Z,14.97
2017-06-29T16:13:51.246Z,15.83
2017-06-29T16:16:20.007Z,12.23
2017-06-29T16:18:48.376Z,19.63
2017-06-29T16:21:17.490Z,14.40
2017-06-29T16:23:46.098Z,20.97
2017-06-29T16:26:14.476Z,19.50
2017-06-29T16:28:42.829Z,24.67
2017-06-29T16:31:11.623Z,18.87
2017-06-29T16:33:39.966Z,21.00
2017-06-29T16:36:08.342Z,34.33
2017-06-29T16:38:37.005Z,27.40
2017-06-29T16:41:05.362Z,41.20
2017-06-29T16:43:33.707Z,40.17
2017-06-29T16:46:02.362Z,49.53
2017-06-29T16:48:30.751Z,45.60
2017-06-29T16:50:59.130Z,54.17
2017-06-29T16:53:28.088Z,53.30
2017-06-29T16:55:56.452Z,52.33
2017-06-29T16:58:24.874Z,42.20
2017-06-29T17:00:53.718Z,55.93
2017-06-29T17:03:22.071Z,43.83
2017-06-29T17:05:51.232Z,39.77
2017-06-29T17:08:19.976Z,61.17
2017-06-29T17:10:48.323Z,49.70
2017-06-29T17:13:16.680Z,45.03
2017-06-29T17:15:45.812Z,40.77
2017-06-29T17:18:14.145Z,41.60
2017-06-29T17:20:42.482Z,38.73
2017-06-29T17:23:11.135Z,44.73
2017-06-29T17:25:39.498Z,47.73
2017-06-29T17:28:07.903Z,38.47
2017-06-29T17:30:36.602Z,38.87
2017-06-29T17:33:05.722Z,41.57
2017-06-29T17:35:34.066Z,41.27
2017-06-29T17:38:02.986Z,56.00
2017-06-29T17:40:31.324Z,43.37
2017-06-29T17:42:59.682Z,39.27
2017-06-29T17:45:28.349Z,47.73
2017-06-29T17:47:56.698Z,40.37
2017-06-29T17:50:25.040Z,43.63
2017-06-29T17:52:53.803Z,41.30
2017-06-29T17:55:22.163Z,38.13
2017-06-29T17:57:50.499Z,52.23
2017-06-29T18:00:20.106Z,40.30
2017-06-29T18:02:48.451Z,42.23
2017-06-29T18:05:16.798Z,44.57
2017-06-29T18:07:45.586Z,32.10
2017-06-29T18:10:13.977Z,40.63
2017-06-29T18:12:42.349Z,38.70
2017-06-29T18:15:11.055Z,44.13
2017-06-29T18:17:39.454Z,34.83
2017-06-29T18:20:07.801Z,30.97
2017-06-29T18:22:36.776Z,42.43
2017-06-29T18:25:05.116Z,49.17
2017-06-29T18:27:33.462Z,17.90
2017-06-29T18:30:02.110Z,18.57
2017-06-29T18:32:30.462Z,16.87
2017-06-29T18:34:58.798Z,21.50
2017-06-29T18:37:27.550Z,28.83
2017-06-29T18:39:55.936Z,35.83
2017-06-29T18:42:25.124Z,33.80
2017-06-29T18:44:53.866Z,39.60
2017-06-29T18:47:22.210Z,35.63
2017-06-29T18:49:50.558Z,28.57
2017-06-29T18:52:19.241Z,27.53
2017-06-29T18:54:47.651Z,29.30
2017-06-29T18:57:16.749Z,26.97
2017-06-29T18:59:45.549Z,35.13
2017-06-29T19:02:13.953Z,30.10
2017-06-29T19:04:42.310Z,25.73
2017-06-29T19:07:11.204Z,27.53
2017-06-29T19:09:39.578Z,23.77
2017-06-29T19:12:07.931Z,20.90
2017-06-29T19:14:36.601Z,17.53
2017-06-29T19:17:04.940Z,20.40
2017-06-29T19:19:33.281Z,17.93
2017-06-29T19:22:02.919Z,19.53
2017-06-29T19:24:31.296Z,18.47
2017-06-29T19:26:59.656Z,24.17
2017-06-29T19:29:28.567Z,29.60
2017-06-29T19:31:56.923Z,16.43
2017-06-29T19:34:26.051Z,14.67
2017-06-29T19:36:54.671Z,11.40
2017-06-29T19:39:23.028Z,9.70
2017-06-29T19:41:51.431Z,10.40
2017-06-29T19:44:20.128Z,14.03
2017-06-29T19:46:48.471Z,9.97
2017-06-29T19:49:16.881Z,10.13
2017-06-29T19:51:45.730Z,11.43
2017-06-29T19:54:14.073Z,8.97
2017-06-29T19:56:43.169Z,10.00
2017-06-29T19:59:12.533Z,7.83
2017-06-29T20:01:40.863Z,13.40
2017-06-29T20:04:09.234Z,8.27
2017-06-29T20:06:37.848Z,12.50
2017-06-29T20:09:06.196Z,11.33
2017-06-29T20:11:35.298Z,12.00
2017-06-29T20:14:04.241Z,9.07
2017-06-29T20:16:32.643Z,8.17
2017-06-29T20:19:01.002Z,9.60
2017-06-29T20:21:29.757Z,16.17
2017-06-29T20:23:58.172Z,12.50
2017-06-29T20:26:26.583Z,9.90
2017-06-29T20:30:13.620Z,12.37
2017-06-29T20:32:41.972Z,10.87
2017-06-29T20:35:10.309Z,18.07
2017-06-29T20:37:39.064Z,12.00
2017-06-29T20:40:07.409Z,12.83
2017-06-29T20:42:35.758Z,12.47
2017-06-29T20:45:04.411Z,19.87
2017-06-29T20:47:33.506Z,14.00
2017-06-29T20:50:02.611Z,14.00
2017-06-29T20:52:31.454Z,16.10
2017-06-29T20:54:59.814Z,13.03
2017-06-29T20:57:28.160Z,16.03
2017-06-29T20:59:56.785Z,13.63
2017-06-29T21:02:25.108Z,20.47
2017-06-29T21:04:53.453Z,19.83
2017-06-29T21:07:22.187Z,19.37
2017-06-29T21:09:50.547Z,18.47
2017-06-29T21:12:18.925Z,17.57
2017-06-29T21:14:48.506Z,26.27
2017-06-29T21:17:16.870Z,28.80
2017-06-29T21:19:45.230Z,39.90
2017-06-29T21:22:13.864Z,36.10
2017-06-29T21:24:42.212Z,41.87
2017-06-29T21:27:11.262Z,40.67
2017-06-29T21:29:40.261Z,44.50
2017-06-29T21:32:08.631Z,37.43
2017-06-29T21:34:37.737Z,53.67
2017-06-29T21:37:06.594Z,50.20
2017-06-29T21:39:35.282Z,42.80
2017-06-29T21:42:03.649Z,47.17
2017-06-29T21:44:32.288Z,55.40
2017-06-29T21:47:00.637Z,44.03
2017-06-29T21:49:28.992Z,82.33
2017-06-29T21:51:57.604Z,47.87
2017-06-29T21:54:25.932Z,59.10
2017-06-29T21:56:54.264Z,58.53
2017-06-29T21:59:23.649Z,37.40
2017-06-29T22:01:51.968Z,42.20
2017-06-29T22:04:20.329Z,43.97
2017-06-29T22:06:49.114Z,36.00
2017-06-29T22:09:17.458Z,39.03
2017-06-29T22:11:45.796Z,48.43
2017-06-29T22:14:14.429Z,50.43
2017-06-29T22:16:42.786Z,38.20
2017-06-29T22:19:11.141Z,37.93
2017-06-29T22:21:40.154Z,40.50
2017-06-29T22:24:08.484Z,33.97
2017-06-29T22:26:36.828Z,36.93
2017-06-29T22:29:05.667Z,30.03
2017-06-29T22:31:34.026Z,32.10
2017-06-29T22:34:02.404Z,31.60
2017-06-29T22:36:31.144Z,37.53
2017-06-29T22:38:59.492Z,37.03
2017-06-29T22:41:27.818Z,36.87
2017-06-29T22:43:56.577Z,25.90
2017-06-29T22:46:25.135Z,22.90
2017-06-29T22:48:54.258Z,19.93
2017-06-29T22:51:23.251Z,16.10
2017-06-29T22:53:51.617Z,22.13
2017-06-29T22:56:19.975Z,15.53
2017-06-29T22:58:48.599Z,14.00
2017-06-29T23:01:16.954Z,23.33
2017-06-29T23:03:45.314Z,11.30
2017-06-29T23:06:14.850Z,8.43
2017-06-29T23:08:43.237Z,7.90
2017-06-29T23:11:11.574Z,10.07
2017-06-29T23:13:40.311Z,10.80
2017-06-29T23:16:08.646Z,13.73
2017-06-29T23:18:36.984Z,11.13
2017-06-29T23:21:05.836Z,11.90
2017-06-29T23:23:34.154Z,9.77
2017-06-29T23:26:02.478Z,14.47
2017-06-29T23:28:31.222Z,13.60
2017-06-29T23:30:59.540Z,11.63
2017-06-29T23:33:27.876Z,14.37
2017-06-29T23:35:56.572Z,13.83
2017-06-29T23:38:24.910Z,14.33
2017-06-29T23:40:53.491Z,26.80
2017-06-29T23:43:22.148Z,17.03
2017-06-29T23:45:50.507Z,19.13
2017-06-29T23:48:18.829Z,19.37
2017-06-29T23:50:47.658Z,24.67
2017-06-29T23:53:15.991Z,26.63
2017-06-29T23:55:44.327Z,20.90
2017-06-29T23:58:13.002Z,29.77
